Kingshill, Virgin Islands
Current Conditions -  °F | °C
As of 10:00 PM on Sunday 25 Jan 2015 (Local Time) from TUPJ Reporting Station
Few Clouds Few Clouds  
Wind Chill: 79°   Ceiling: Unl
Heat Index: 81°   Visibility: 6mi
Dew Point: 70°   Wind: 9mph
Humidity: 74%   Direction: 110°ESE
Pressure: 30.03"   Gusts: NA
Location:  17.72°N, 64.78°W
Report Text: TUPJ 260200Z 11008KT 9999 FEW022 26/21 Q1017 RMK A3004
Loading
Personal Weather Stations






























Interactive Weather Map New forecast layout! Learn more

10-Day Weather Forecast

Advertisements
Track Severe Weather on mobile